sensor_id;sensor_type;location;lat;lon;timestamp;P1;durP1;ratioP1;P2;durP2;ratioP2
33006;SDS011;19361;51.598;7.650;2024-03-06T00:04:07;35.00;;;24.80;;
33006;SDS011;19361;51.598;7.650;2024-03-06T00:09:08;40.05;;;25.10;;
33006;SDS011;19361;51.598;7.650;2024-03-06T00:14:08;36.22;;;25.90;;
33006;SDS011;19361;51.598;7.650;2024-03-06T00:19:12;32.00;;;23.15;;
33006;SDS011;19361;51.598;7.650;2024-03-06T00:24:13;32.88;;;24.50;;
33006;SDS011;19361;51.598;7.650;2024-03-06T00:29:15;30.88;;;23.85;;
33006;SDS011;19361;51.598;7.650;2024-03-06T00:34:16;31.02;;;24.40;;
33006;SDS011;19361;51.598;7.650;2024-03-06T00:39:17;33.88;;;24.00;;
33006;SDS011;19361;51.598;7.650;2024-03-06T00:44:17;34.17;;;24.55;;
33006;SDS011;19361;51.598;7.650;2024-03-06T00:49:18;31.17;;;22.35;;
33006;SDS011;19361;51.598;7.650;2024-03-06T00:54:19;36.80;;;24.15;;
33006;SDS011;19361;51.598;7.650;2024-03-06T00:59:19;32.35;;;24.17;;
33006;SDS011;19361;51.598;7.650;2024-03-06T01:04:20;29.40;;;22.25;;
33006;SDS011;19361;51.598;7.650;2024-03-06T01:09:21;32.08;;;22.67;;
33006;SDS011;19361;51.598;7.650;2024-03-06T01:14:23;31.80;;;24.00;;
33006;SDS011;19361;51.598;7.650;2024-03-06T01:19:23;33.70;;;23.40;;
33006;SDS011;19361;51.598;7.650;2024-03-06T01:24:24;30.48;;;22.75;;
33006;SDS011;19361;51.598;7.650;2024-03-06T01:29:25;35.53;;;25.67;;
33006;SDS011;19361;51.598;7.650;2024-03-06T01:34:25;45.15;;;32.72;;
33006;SDS011;19361;51.598;7.650;2024-03-06T01:39:26;52.05;;;36.33;;
33006;SDS011;19361;51.598;7.650;2024-03-06T01:44:27;48.75;;;34.55;;
33006;SDS011;19361;51.598;7.650;2024-03-06T01:49:28;43.13;;;30.08;;
33006;SDS011;19361;51.598;7.650;2024-03-06T01:54:29;42.45;;;28.88;;
33006;SDS011;19361;51.598;7.650;2024-03-06T01:59:31;41.63;;;28.02;;
33006;SDS011;19361;51.598;7.650;2024-03-06T02:04:32;39.92;;;28.45;;
33006;SDS011;19361;51.598;7.650;2024-03-06T02:09:33;44.50;;;28.20;;
33006;SDS011;19361;51.598;7.650;2024-03-06T02:14:34;49.75;;;30.92;;
33006;SDS011;19361;51.598;7.650;2024-03-06T02:19:39;54.85;;;33.33;;
33006;SDS011;19361;51.598;7.650;2024-03-06T02:24:44;60.47;;;38.03;;
33006;SDS011;19361;51.598;7.650;2024-03-06T02:29:48;66.50;;;41.38;;
33006;SDS011;19361;51.598;7.650;2024-03-06T02:34:48;58.55;;;37.70;;
33006;SDS011;19361;51.598;7.650;2024-03-06T02:39:49;65.05;;;41.95;;
33006;SDS011;19361;51.598;7.650;2024-03-06T02:44:50;61.65;;;39.13;;
33006;SDS011;19361;51.598;7.650;2024-03-06T02:49:50;63.28;;;41.45;;
33006;SDS011;19361;51.598;7.650;2024-03-06T02:54:51;58.83;;;40.95;;
33006;SDS011;19361;51.598;7.650;2024-03-06T02:59:52;60.20;;;39.95;;
33006;SDS011;19361;51.598;7.650;2024-03-06T03:04:52;52.17;;;35.33;;
33006;SDS011;19361;51.598;7.650;2024-03-06T03:09:53;44.55;;;30.90;;
33006;SDS011;19361;51.598;7.650;2024-03-06T03:14:53;39.05;;;27.45;;
33006;SDS011;19361;51.598;7.650;2024-03-06T03:19:54;35.78;;;24.90;;
33006;SDS011;19361;51.598;7.650;2024-03-06T03:24:55;33.83;;;24.00;;
33006;SDS011;19361;51.598;7.650;2024-03-06T03:29:56;32.20;;;23.92;;
33006;SDS011;19361;51.598;7.650;2024-03-06T03:34:56;32.42;;;23.15;;
33006;SDS011;19361;51.598;7.650;2024-03-06T03:39:57;34.72;;;23.67;;
33006;SDS011;19361;51.598;7.650;2024-03-06T03:44:57;32.13;;;22.30;;
33006;SDS011;19361;51.598;7.650;2024-03-06T03:49:58;31.75;;;21.95;;
33006;SDS011;19361;51.598;7.650;2024-03-06T03:54:59;36.47;;;25.88;;
33006;SDS011;19361;51.598;7.650;2024-03-06T03:59:59;46.95;;;32.42;;
33006;SDS011;19361;51.598;7.650;2024-03-06T04:05:00;41.55;;;27.58;;
33006;SDS011;19361;51.598;7.650;2024-03-06T04:10:01;43.20;;;29.90;;
33006;SDS011;19361;51.598;7.650;2024-03-06T04:15:03;38.17;;;27.52;;
33006;SDS011;19361;51.598;7.650;2024-03-06T04:20:05;36.67;;;25.92;;
33006;SDS011;19361;51.598;7.650;2024-03-06T04:25:06;34.67;;;24.40;;
33006;SDS011;19361;51.598;7.650;2024-03-06T04:30:08;37.55;;;25.60;;
33006;SDS011;19361;51.598;7.650;2024-03-06T04:35:09;40.08;;;27.95;;
33006;SDS011;19361;51.598;7.650;2024-03-06T04:40:10;42.00;;;27.80;;
33006;SDS011;19361;51.598;7.650;2024-03-06T04:45:11;42.55;;;29.30;;
33006;SDS011;19361;51.598;7.650;2024-03-06T04:50:15;40.05;;;27.90;;
33006;SDS011;19361;51.598;7.650;2024-03-06T04:55:17;45.83;;;32.22;;
33006;SDS011;19361;51.598;7.650;2024-03-06T05:00:22;43.22;;;30.55;;
33006;SDS011;19361;51.598;7.650;2024-03-06T05:05:23;46.17;;;30.80;;
33006;SDS011;19361;51.598;7.650;2024-03-06T05:10:24;46.53;;;32.33;;
33006;SDS011;19361;51.598;7.650;2024-03-06T05:15:27;45.95;;;31.73;;
33006;SDS011;19361;51.598;7.650;2024-03-06T05:20:28;51.60;;;35.20;;
33006;SDS011;19361;51.598;7.650;2024-03-06T05:25:30;62.00;;;43.90;;
33006;SDS011;19361;51.598;7.650;2024-03-06T05:30:31;74.53;;;51.28;;
33006;SDS011;19361;51.598;7.650;2024-03-06T05:35:32;73.47;;;52.33;;
33006;SDS011;19361;51.598;7.650;2024-03-06T05:40:32;83.57;;;56.45;;
33006;SDS011;19361;51.598;7.650;2024-03-06T05:45:37;73.43;;;50.92;;
33006;SDS011;19361;51.598;7.650;2024-03-06T05:50:38;65.85;;;46.80;;
33006;SDS011;19361;51.598;7.650;2024-03-06T05:55:39;71.03;;;50.28;;
33006;SDS011;19361;51.598;7.650;2024-03-06T06:00:39;73.25;;;52.60;;
33006;SDS011;19361;51.598;7.650;2024-03-06T06:05:40;66.45;;;46.85;;
33006;SDS011;19361;51.598;7.650;2024-03-06T06:10:41;67.47;;;45.50;;
33006;SDS011;19361;51.598;7.650;2024-03-06T06:15:42;71.10;;;50.17;;
33006;SDS011;19361;51.598;7.650;2024-03-06T06:20:42;68.72;;;48.05;;
33006;SDS011;19361;51.598;7.650;2024-03-06T06:25:43;55.33;;;39.40;;
33006;SDS011;19361;51.598;7.650;2024-03-06T06:30:44;61.22;;;41.75;;
33006;SDS011;19361;51.598;7.650;2024-03-06T06:35:44;49.60;;;35.53;;
33006;SDS011;19361;51.598;7.650;2024-03-06T06:40:45;53.40;;;37.78;;
33006;SDS011;19361;51.598;7.650;2024-03-06T06:45:46;53.20;;;37.47;;
33006;SDS011;19361;51.598;7.650;2024-03-06T06:50:46;49.28;;;35.15;;
33006;SDS011;19361;51.598;7.650;2024-03-06T06:55:47;51.17;;;35.92;;
33006;SDS011;19361;51.598;7.650;2024-03-06T07:00:48;48.08;;;32.38;;
33006;SDS011;19361;51.598;7.650;2024-03-06T07:05:49;44.25;;;30.27;;
33006;SDS011;19361;51.598;7.650;2024-03-06T07:10:50;47.33;;;31.98;;
33006;SDS011;19361;51.598;7.650;2024-03-06T07:15:53;45.65;;;29.90;;
33006;SDS011;19361;51.598;7.650;2024-03-06T07:20:54;41.92;;;28.55;;
33006;SDS011;19361;51.598;7.650;2024-03-06T07:25:55;42.75;;;27.67;;
33006;SDS011;19361;51.598;7.650;2024-03-06T07:30:57;42.70;;;26.77;;
33006;SDS011;19361;51.598;7.650;2024-03-06T07:35:58;49.55;;;30.33;;
33006;SDS011;19361;51.598;7.650;2024-03-06T07:40:58;38.08;;;27.83;;
33006;SDS011;19361;51.598;7.650;2024-03-06T07:45:59;44.08;;;28.52;;
33006;SDS011;19361;51.598;7.650;2024-03-06T07:50:59;41.10;;;26.55;;
33006;SDS011;19361;51.598;7.650;2024-03-06T07:56:02;45.88;;;30.55;;
33006;SDS011;19361;51.598;7.650;2024-03-06T08:07:13;54.03;;;34.47;;
33006;SDS011;19361;51.598;7.650;2024-03-06T08:12:14;53.03;;;34.25;;
33006;SDS011;19361;51.598;7.650;2024-03-06T08:17:15;54.90;;;34.45;;
33006;SDS011;19361;51.598;7.650;2024-03-06T08:22:15;54.60;;;33.10;;
33006;SDS011;19361;51.598;7.650;2024-03-06T08:27:16;53.90;;;33.05;;
33006;SDS011;19361;51.598;7.650;2024-03-06T08:32:17;50.33;;;31.02;;
33006;SDS011;19361;51.598;7.650;2024-03-06T08:37:18;56.80;;;36.42;;
33006;SDS011;19361;51.598;7.650;2024-03-06T08:42:19;54.33;;;34.60;;
33006;SDS011;19361;51.598;7.650;2024-03-06T08:47:20;49.83;;;34.22;;
33006;SDS011;19361;51.598;7.650;2024-03-06T08:52:20;55.30;;;36.25;;
33006;SDS011;19361;51.598;7.650;2024-03-06T08:57:21;48.70;;;31.55;;
33006;SDS011;19361;51.598;7.650;2024-03-06T09:02:22;51.80;;;33.40;;
33006;SDS011;19361;51.598;7.650;2024-03-06T09:07:23;48.25;;;33.40;;
33006;SDS011;19361;51.598;7.650;2024-03-06T09:12:23;49.08;;;32.35;;
33006;SDS011;19361;51.598;7.650;2024-03-06T09:17:24;44.72;;;30.08;;
33006;SDS011;19361;51.598;7.650;2024-03-06T09:22:25;48.55;;;32.05;;
33006;SDS011;19361;51.598;7.650;2024-03-06T09:27:25;45.67;;;31.70;;
33006;SDS011;19361;51.598;7.650;2024-03-06T09:32:27;47.47;;;32.65;;
33006;SDS011;19361;51.598;7.650;2024-03-06T09:37:27;69.35;;;44.05;;
33006;SDS011;19361;51.598;7.650;2024-03-06T09:42:28;61.63;;;39.97;;
33006;SDS011;19361;51.598;7.650;2024-03-06T09:47:29;59.72;;;38.63;;
33006;SDS011;19361;51.598;7.650;2024-03-06T09:52:32;58.03;;;36.55;;
33006;SDS011;19361;51.598;7.650;2024-03-06T09:57:34;52.45;;;34.40;;
33006;SDS011;19361;51.598;7.650;2024-03-06T10:02:39;58.03;;;37.50;;
33006;SDS011;19361;51.598;7.650;2024-03-06T10:07:50;50.85;;;33.20;;
33006;SDS011;19361;51.598;7.650;2024-03-06T10:12:52;50.85;;;34.63;;
33006;SDS011;19361;51.598;7.650;2024-03-06T10:17:55;55.28;;;35.10;;
33006;SDS011;19361;51.598;7.650;2024-03-06T10:23:15;49.45;;;34.03;;
33006;SDS011;19361;51.598;7.650;2024-03-06T10:28:18;48.85;;;33.20;;
33006;SDS011;19361;51.598;7.650;2024-03-06T10:33:20;44.67;;;31.08;;
33006;SDS011;19361;51.598;7.650;2024-03-06T10:38:21;43.45;;;31.30;;
33006;SDS011;19361;51.598;7.650;2024-03-06T10:43:23;44.28;;;29.27;;
33006;SDS011;19361;51.598;7.650;2024-03-06T10:48:24;44.17;;;31.27;;
33006;SDS011;19361;51.598;7.650;2024-03-06T10:53:28;47.88;;;33.08;;
33006;SDS011;19361;51.598;7.650;2024-03-06T10:58:31;50.63;;;36.05;;
33006;SDS011;19361;51.598;7.650;2024-03-06T11:03:33;50.65;;;35.53;;
33006;SDS011;19361;51.598;7.650;2024-03-06T11:08:36;44.45;;;31.77;;
33006;SDS011;19361;51.598;7.650;2024-03-06T11:13:36;39.88;;;27.27;;
33006;SDS011;19361;51.598;7.650;2024-03-06T11:18:41;37.85;;;26.58;;
33006;SDS011;19361;51.598;7.650;2024-03-06T11:29:13;33.38;;;25.75;;
33006;SDS011;19361;51.598;7.650;2024-03-06T11:34:18;32.50;;;24.52;;
33006;SDS011;19361;51.598;7.650;2024-03-06T11:39:22;34.70;;;24.40;;
33006;SDS011;19361;51.598;7.650;2024-03-06T11:44:23;44.53;;;31.00;;
33006;SDS011;19361;51.598;7.650;2024-03-06T11:49:25;47.53;;;32.42;;
33006;SDS011;19361;51.598;7.650;2024-03-06T11:54:34;40.15;;;29.85;;
33006;SDS011;19361;51.598;7.650;2024-03-06T11:59:35;37.78;;;26.85;;
33006;SDS011;19361;51.598;7.650;2024-03-06T12:04:38;38.70;;;27.75;;
33006;SDS011;19361;51.598;7.650;2024-03-06T12:09:40;35.63;;;26.55;;
33006;SDS011;19361;51.598;7.650;2024-03-06T12:14:41;32.92;;;25.05;;
33006;SDS011;19361;51.598;7.650;2024-03-06T12:19:41;33.40;;;24.38;;
33006;SDS011;19361;51.598;7.650;2024-03-06T12:24:44;31.20;;;23.90;;
33006;SDS011;19361;51.598;7.650;2024-03-06T12:29:45;30.70;;;24.08;;
33006;SDS011;19361;51.598;7.650;2024-03-06T12:34:56;29.67;;;23.85;;
33006;SDS011;19361;51.598;7.650;2024-03-06T12:40:01;35.35;;;26.88;;
33006;SDS011;19361;51.598;7.650;2024-03-06T12:45:04;33.95;;;26.13;;
33006;SDS011;19361;51.598;7.650;2024-03-06T12:50:07;33.38;;;25.73;;
33006;SDS011;19361;51.598;7.650;2024-03-06T12:55:08;36.63;;;26.85;;
33006;SDS011;19361;51.598;7.650;2024-03-06T13:00:09;32.63;;;24.83;;
33006;SDS011;19361;51.598;7.650;2024-03-06T13:05:15;35.47;;;25.60;;
33006;SDS011;19361;51.598;7.650;2024-03-06T13:10:16;31.23;;;23.63;;
33006;SDS011;19361;51.598;7.650;2024-03-06T13:15:17;33.60;;;24.52;;
33006;SDS011;19361;51.598;7.650;2024-03-06T13:20:18;30.00;;;21.75;;
33006;SDS011;19361;51.598;7.650;2024-03-06T13:25:19;29.40;;;21.38;;
33006;SDS011;19361;51.598;7.650;2024-03-06T13:30:20;26.13;;;21.73;;
33006;SDS011;19361;51.598;7.650;2024-03-06T13:35:21;29.52;;;22.05;;
33006;SDS011;19361;51.598;7.650;2024-03-06T13:40:21;29.13;;;21.73;;
33006;SDS011;19361;51.598;7.650;2024-03-06T13:45:22;29.40;;;23.00;;
33006;SDS011;19361;51.598;7.650;2024-03-06T13:50:23;32.53;;;23.38;;
33006;SDS011;19361;51.598;7.650;2024-03-06T13:55:25;28.52;;;22.35;;
33006;SDS011;19361;51.598;7.650;2024-03-06T14:00:31;31.60;;;21.05;;
33006;SDS011;19361;51.598;7.650;2024-03-06T14:05:31;33.60;;;22.65;;
33006;SDS011;19361;51.598;7.650;2024-03-06T14:10:32;29.25;;;21.63;;
33006;SDS011;19361;51.598;7.650;2024-03-06T14:15:33;26.50;;;21.45;;
33006;SDS011;19361;51.598;7.650;2024-03-06T14:20:35;30.00;;;21.65;;
33006;SDS011;19361;51.598;7.650;2024-03-06T14:25:36;29.17;;;21.17;;
33006;SDS011;19361;51.598;7.650;2024-03-06T14:30:38;31.20;;;22.17;;
33006;SDS011;19361;51.598;7.650;2024-03-06T14:35:38;30.90;;;23.20;;
33006;SDS011;19361;51.598;7.650;2024-03-06T14:40:39;30.30;;;21.80;;
33006;SDS011;19361;51.598;7.650;2024-03-06T14:45:40;32.70;;;22.95;;
33006;SDS011;19361;51.598;7.650;2024-03-06T14:50:44;28.77;;;22.50;;
33006;SDS011;19361;51.598;7.650;2024-03-06T14:55:46;25.95;;;20.58;;
33006;SDS011;19361;51.598;7.650;2024-03-06T15:00:46;29.58;;;20.90;;
33006;SDS011;19361;51.598;7.650;2024-03-06T15:05:47;29.33;;;21.52;;
33006;SDS011;19361;51.598;7.650;2024-03-06T15:10:48;31.38;;;21.10;;
33006;SDS011;19361;51.598;7.650;2024-03-06T15:15:49;28.10;;;20.25;;
33006;SDS011;19361;51.598;7.650;2024-03-06T15:20:50;29.38;;;20.75;;
33006;SDS011;19361;51.598;7.650;2024-03-06T15:25:51;29.98;;;21.95;;
33006;SDS011;19361;51.598;7.650;2024-03-06T15:30:54;31.08;;;21.45;;
33006;SDS011;19361;51.598;7.650;2024-03-06T15:35:56;29.40;;;21.48;;
33006;SDS011;19361;51.598;7.650;2024-03-06T15:40:59;31.42;;;22.15;;
33006;SDS011;19361;51.598;7.650;2024-03-06T15:45:59;29.55;;;21.75;;
33006;SDS011;19361;51.598;7.650;2024-03-06T15:51:00;31.65;;;21.88;;
33006;SDS011;19361;51.598;7.650;2024-03-06T15:56:01;32.13;;;22.75;;
33006;SDS011;19361;51.598;7.650;2024-03-06T16:01:01;32.72;;;23.08;;
33006;SDS011;19361;51.598;7.650;2024-03-06T16:06:03;35.25;;;25.17;;
33006;SDS011;19361;51.598;7.650;2024-03-06T16:11:04;32.53;;;23.23;;
33006;SDS011;19361;51.598;7.650;2024-03-06T16:16:06;32.10;;;22.63;;
33006;SDS011;19361;51.598;7.650;2024-03-06T16:21:08;29.40;;;22.38;;
33006;SDS011;19361;51.598;7.650;2024-03-06T16:26:08;27.95;;;21.20;;
33006;SDS011;19361;51.598;7.650;2024-03-06T16:31:09;28.50;;;21.05;;
33006;SDS011;19361;51.598;7.650;2024-03-06T16:36:10;35.67;;;23.10;;
33006;SDS011;19361;51.598;7.650;2024-03-06T16:41:11;31.08;;;23.42;;
33006;SDS011;19361;51.598;7.650;2024-03-06T16:46:12;29.95;;;22.83;;
33006;SDS011;19361;51.598;7.650;2024-03-06T16:51:18;28.17;;;22.00;;
33006;SDS011;19361;51.598;7.650;2024-03-06T16:56:19;34.60;;;24.20;;
33006;SDS011;19361;51.598;7.650;2024-03-06T17:01:20;33.55;;;23.25;;
33006;SDS011;19361;51.598;7.650;2024-03-06T17:06:24;35.55;;;25.38;;
33006;SDS011;19361;51.598;7.650;2024-03-06T17:11:25;36.33;;;25.73;;
33006;SDS011;19361;51.598;7.650;2024-03-06T17:16:25;36.55;;;27.08;;
33006;SDS011;19361;51.598;7.650;2024-03-06T17:21:26;36.55;;;26.50;;
33006;SDS011;19361;51.598;7.650;2024-03-06T17:26:27;37.20;;;25.90;;
33006;SDS011;19361;51.598;7.650;2024-03-06T17:31:27;42.42;;;28.02;;
33006;SDS011;19361;51.598;7.650;2024-03-06T17:36:28;41.88;;;28.25;;
33006;SDS011;19361;51.598;7.650;2024-03-06T17:41:29;40.97;;;28.05;;
33006;SDS011;19361;51.598;7.650;2024-03-06T17:46:30;41.58;;;28.63;;
33006;SDS011;19361;51.598;7.650;2024-03-06T17:51:32;43.60;;;29.25;;
33006;SDS011;19361;51.598;7.650;2024-03-06T17:56:35;41.75;;;26.90;;
33006;SDS011;19361;51.598;7.650;2024-03-06T18:01:35;42.38;;;27.98;;
33006;SDS011;19361;51.598;7.650;2024-03-06T18:06:36;42.40;;;28.40;;
33006;SDS011;19361;51.598;7.650;2024-03-06T18:11:37;41.97;;;27.55;;
33006;SDS011;19361;51.598;7.650;2024-03-06T18:16:37;40.28;;;27.52;;
33006;SDS011;19361;51.598;7.650;2024-03-06T18:21:44;41.45;;;28.63;;
33006;SDS011;19361;51.598;7.650;2024-03-06T18:26:45;42.30;;;28.30;;
33006;SDS011;19361;51.598;7.650;2024-03-06T18:31:46;48.58;;;30.20;;
33006;SDS011;19361;51.598;7.650;2024-03-06T18:36:47;48.53;;;30.23;;
33006;SDS011;19361;51.598;7.650;2024-03-06T18:41:47;43.17;;;29.95;;
33006;SDS011;19361;51.598;7.650;2024-03-06T18:46:48;52.38;;;31.67;;
33006;SDS011;19361;51.598;7.650;2024-03-06T18:51:48;59.03;;;30.65;;
33006;SDS011;19361;51.598;7.650;2024-03-06T18:56:49;52.65;;;32.70;;
33006;SDS011;19361;51.598;7.650;2024-03-06T19:01:51;54.15;;;34.42;;
33006;SDS011;19361;51.598;7.650;2024-03-06T19:06:52;59.50;;;35.15;;
33006;SDS011;19361;51.598;7.650;2024-03-06T19:11:53;61.53;;;34.83;;
33006;SDS011;19361;51.598;7.650;2024-03-06T19:16:54;60.55;;;34.53;;
33006;SDS011;19361;51.598;7.650;2024-03-06T19:21:54;65.50;;;38.35;;
33006;SDS011;19361;51.598;7.650;2024-03-06T19:26:55;65.93;;;37.25;;
33006;SDS011;19361;51.598;7.650;2024-03-06T19:31:56;67.05;;;37.38;;
33006;SDS011;19361;51.598;7.650;2024-03-06T19:36:58;77.75;;;40.85;;
33006;SDS011;19361;51.598;7.650;2024-03-06T19:42:00;69.10;;;40.38;;
33006;SDS011;19361;51.598;7.650;2024-03-06T19:47:05;77.38;;;40.67;;
33006;SDS011;19361;51.598;7.650;2024-03-06T19:52:06;76.20;;;41.00;;
33006;SDS011;19361;51.598;7.650;2024-03-06T19:57:06;73.13;;;39.53;;
33006;SDS011;19361;51.598;7.650;2024-03-06T20:02:07;67.65;;;38.88;;
33006;SDS011;19361;51.598;7.650;2024-03-06T20:07:08;68.00;;;38.13;;
33006;SDS011;19361;51.598;7.650;2024-03-06T20:12:08;76.53;;;42.08;;
33006;SDS011;19361;51.598;7.650;2024-03-06T20:17:09;76.80;;;40.45;;
33006;SDS011;19361;51.598;7.650;2024-03-06T20:22:10;79.13;;;40.13;;
33006;SDS011;19361;51.598;7.650;2024-03-06T20:27:11;70.47;;;39.45;;
33006;SDS011;19361;51.598;7.650;2024-03-06T20:32:12;64.28;;;39.10;;
33006;SDS011;19361;51.598;7.650;2024-03-06T20:37:15;67.60;;;38.17;;
33006;SDS011;19361;51.598;7.650;2024-03-06T20:42:16;72.25;;;39.78;;
33006;SDS011;19361;51.598;7.650;2024-03-06T20:47:17;70.80;;;38.75;;
33006;SDS011;19361;51.598;7.650;2024-03-06T20:52:19;68.85;;;38.33;;
33006;SDS011;19361;51.598;7.650;2024-03-06T20:57:20;68.72;;;37.72;;
33006;SDS011;19361;51.598;7.650;2024-03-06T21:02:22;78.72;;;39.13;;
33006;SDS011;19361;51.598;7.650;2024-03-06T21:07:26;68.82;;;39.55;;
33006;SDS011;19361;51.598;7.650;2024-03-06T21:12:26;65.90;;;37.55;;
33006;SDS011;19361;51.598;7.650;2024-03-06T21:17:27;66.38;;;37.35;;
33006;SDS011;19361;51.598;7.650;2024-03-06T21:22:28;70.28;;;40.13;;
33006;SDS011;19361;51.598;7.650;2024-03-06T21:27:28;64.50;;;38.03;;
33006;SDS011;19361;51.598;7.650;2024-03-06T21:32:29;70.47;;;39.53;;
33006;SDS011;19361;51.598;7.650;2024-03-06T21:37:30;72.10;;;39.58;;
33006;SDS011;19361;51.598;7.650;2024-03-06T21:42:32;66.07;;;39.33;;
33006;SDS011;19361;51.598;7.650;2024-03-06T21:47:32;62.97;;;37.40;;
33006;SDS011;19361;51.598;7.650;2024-03-06T21:52:33;60.53;;;37.38;;
33006;SDS011;19361;51.598;7.650;2024-03-06T21:57:34;69.78;;;39.03;;
33006;SDS011;19361;51.598;7.650;2024-03-06T22:02:35;65.70;;;37.55;;
33006;SDS011;19361;51.598;7.650;2024-03-06T22:07:37;69.00;;;38.80;;
33006;SDS011;19361;51.598;7.650;2024-03-06T22:12:37;61.45;;;37.70;;
33006;SDS011;19361;51.598;7.650;2024-03-06T22:17:38;65.28;;;38.25;;
33006;SDS011;19361;51.598;7.650;2024-03-06T22:22:39;70.00;;;37.83;;
33006;SDS011;19361;51.598;7.650;2024-03-06T22:27:39;60.00;;;36.38;;
33006;SDS011;19361;51.598;7.650;2024-03-06T22:32:40;61.25;;;35.92;;
33006;SDS011;19361;51.598;7.650;2024-03-06T22:37:41;53.63;;;32.10;;
33006;SDS011;19361;51.598;7.650;2024-03-06T22:42:41;54.10;;;33.53;;
33006;SDS011;19361;51.598;7.650;2024-03-06T22:47:43;52.00;;;32.30;;
33006;SDS011;19361;51.598;7.650;2024-03-06T22:52:43;54.03;;;32.15;;
33006;SDS011;19361;51.598;7.650;2024-03-06T22:57:44;52.65;;;32.47;;
33006;SDS011;19361;51.598;7.650;2024-03-06T23:02:45;56.67;;;33.85;;
33006;SDS011;19361;51.598;7.650;2024-03-06T23:07:47;55.58;;;32.40;;
33006;SDS011;19361;51.598;7.650;2024-03-06T23:12:47;50.15;;;32.03;;
33006;SDS011;19361;51.598;7.650;2024-03-06T23:17:48;57.90;;;32.58;;
33006;SDS011;19361;51.598;7.650;2024-03-06T23:22:50;48.53;;;31.38;;
33006;SDS011;19361;51.598;7.650;2024-03-06T23:27:51;54.10;;;31.17;;
33006;SDS011;19361;51.598;7.650;2024-03-06T23:32:52;52.25;;;30.95;;
33006;SDS011;19361;51.598;7.650;2024-03-06T23:37:52;48.30;;;31.30;;
33006;SDS011;19361;51.598;7.650;2024-03-06T23:42:53;53.60;;;32.22;;
33006;SDS011;19361;51.598;7.650;2024-03-06T23:47:54;50.13;;;31.70;;
33006;SDS011;19361;51.598;7.650;2024-03-06T23:52:54;50.83;;;32.03;;
33006;SDS011;19361;51.598;7.650;2024-03-06T23:57:55;46.83;;;30.20;;
